Downpatrick, United Kingdom
Current Conditions -  °F | °C
As of 8:20 AM on Monday 22 Dec 2014 (Local Time) from EGAC Reporting Station
Light Rain Light Rain  
Wind Chill: 54°   Ceiling: 1600
Heat Index: 54°   Visibility: 3mi
Dew Point: 52°   Wind: 16mph
Humidity: 94%   Direction: 240°WSW
Pressure: 29.68"   Gusts: NA
Location:  54.33°N, 5.7°W
Report Text: EGAC 220820Z 24014KT 5000 -RADZ FEW007 BKN016 12/11 Q1005
Loading
Personal Weather Stations






























Interactive Weather Map New forecast layout! Learn more

10-Day Weather Forecast

Advertisements
Track Severe Weather on mobile